sensor_id;sensor_type;location;lat;lon;timestamp;P1;durP1;ratioP1;P2;durP2;ratioP2
64060;SDS011;60147;55.036;73.242;2023-05-07T00:03:15;116.60;;;39.78;;
64060;SDS011;60147;55.036;73.242;2023-05-07T00:05:40;98.60;;;37.45;;
64060;SDS011;60147;55.036;73.242;2023-05-07T00:08:25;99.22;;;36.20;;
64060;SDS011;60147;55.036;73.242;2023-05-07T00:14:12;91.60;;;30.70;;
64060;SDS011;60147;55.036;73.242;2023-05-07T00:16:38;75.80;;;28.48;;
64060;SDS011;60147;55.036;73.242;2023-05-07T00:19:04;83.32;;;29.85;;
64060;SDS011;60147;55.036;73.242;2023-05-07T00:21:48;74.47;;;27.33;;
64060;SDS011;60147;55.036;73.242;2023-05-07T00:24:32;78.57;;;25.35;;
64060;SDS011;60147;55.036;73.242;2023-05-07T00:26:58;80.70;;;28.38;;
64060;SDS011;60147;55.036;73.242;2023-05-07T00:29:43;89.32;;;27.55;;
64060;SDS011;60147;55.036;73.242;2023-05-07T00:32:08;82.18;;;28.80;;
64060;SDS011;60147;55.036;73.242;2023-05-07T00:34:34;72.38;;;23.65;;
64060;SDS011;60147;55.036;73.242;2023-05-07T00:37:01;61.05;;;22.80;;
64060;SDS011;60147;55.036;73.242;2023-05-07T00:39:45;54.35;;;20.65;;
64060;SDS011;60147;55.036;73.242;2023-05-07T00:42:29;50.58;;;18.45;;
64060;SDS011;60147;55.036;73.242;2023-05-07T00:44:58;47.40;;;15.88;;
64060;SDS011;60147;55.036;73.242;2023-05-07T00:47:23;41.97;;;15.55;;
64060;SDS011;60147;55.036;73.242;2023-05-07T00:49:50;42.67;;;12.65;;
64060;SDS011;60147;55.036;73.242;2023-05-07T00:52:17;35.45;;;11.88;;
64060;SDS011;60147;55.036;73.242;2023-05-07T00:54:45;29.58;;;11.75;;
64060;SDS011;60147;55.036;73.242;2023-05-07T00:57:11;28.77;;;10.73;;
64060;SDS011;60147;55.036;73.242;2023-05-07T01:02:21;16.92;;;7.78;;
64060;SDS011;60147;55.036;73.242;2023-05-07T01:04:47;35.08;;;12.07;;
64060;SDS011;60147;55.036;73.242;2023-05-07T01:07:14;30.58;;;11.82;;
64060;SDS011;60147;55.036;73.242;2023-05-07T01:09:40;31.00;;;13.50;;
64060;SDS011;60147;55.036;73.242;2023-05-07T01:15:09;28.50;;;9.27;;
64060;SDS011;60147;55.036;73.242;2023-05-07T01:17:35;24.73;;;7.45;;
64060;SDS011;60147;55.036;73.242;2023-05-07T01:20:03;31.42;;;8.55;;
64060;SDS011;60147;55.036;73.242;2023-05-07T01:25:15;24.15;;;7.65;;
64060;SDS011;60147;55.036;73.242;2023-05-07T01:27:46;22.17;;;7.38;;
64060;SDS011;60147;55.036;73.242;2023-05-07T01:30:12;24.75;;;9.35;;
64060;SDS011;60147;55.036;73.242;2023-05-07T01:32:48;27.13;;;7.85;;
64060;SDS011;60147;55.036;73.242;2023-05-07T01:35:19;25.30;;;11.35;;
64060;SDS011;60147;55.036;73.242;2023-05-07T01:37:46;22.60;;;6.75;;
64060;SDS011;60147;55.036;73.242;2023-05-07T01:40:12;12.93;;;5.60;;
64060;SDS011;60147;55.036;73.242;2023-05-07T01:42:39;36.97;;;5.68;;
64060;SDS011;60147;55.036;73.242;2023-05-07T01:45:24;25.77;;;9.23;;
64060;SDS011;60147;55.036;73.242;2023-05-07T01:47:50;21.00;;;5.18;;
64060;SDS011;60147;55.036;73.242;2023-05-07T01:50:17;18.60;;;5.30;;
64060;SDS011;60147;55.036;73.242;2023-05-07T01:53:02;21.58;;;6.38;;
64060;SDS011;60147;55.036;73.242;2023-05-07T01:55:28;22.13;;;6.85;;
64060;SDS011;60147;55.036;73.242;2023-05-07T01:57:54;31.73;;;8.15;;
64060;SDS011;60147;55.036;73.242;2023-05-07T02:00:20;28.65;;;7.20;;
64060;SDS011;60147;55.036;73.242;2023-05-07T02:02:47;23.20;;;6.75;;
64060;SDS011;60147;55.036;73.242;2023-05-07T02:05:25;20.85;;;8.13;;
64060;SDS011;60147;55.036;73.242;2023-05-07T02:10:42;17.08;;;6.78;;
64060;SDS011;60147;55.036;73.242;2023-05-07T02:13:28;15.32;;;6.47;;
64060;SDS011;60147;55.036;73.242;2023-05-07T02:15:54;27.60;;;6.78;;
64060;SDS011;60147;55.036;73.242;2023-05-07T02:18:22;19.10;;;7.68;;
64060;SDS011;60147;55.036;73.242;2023-05-07T02:21:06;24.75;;;7.35;;
64060;SDS011;60147;55.036;73.242;2023-05-07T02:23:32;24.77;;;7.55;;
64060;SDS011;60147;55.036;73.242;2023-05-07T02:25:58;15.38;;;6.75;;
64060;SDS011;60147;55.036;73.242;2023-05-07T02:28:24;15.85;;;7.72;;
64060;SDS011;60147;55.036;73.242;2023-05-07T02:30:55;19.45;;;7.70;;
64060;SDS011;60147;55.036;73.242;2023-05-07T02:33:20;17.20;;;7.00;;
64060;SDS011;60147;55.036;73.242;2023-05-07T02:35:47;16.67;;;7.40;;
64060;SDS011;60147;55.036;73.242;2023-05-07T02:41:17;19.33;;;8.07;;
64060;SDS011;60147;55.036;73.242;2023-05-07T02:43:43;19.15;;;7.78;;
64060;SDS011;60147;55.036;73.242;2023-05-07T02:46:10;27.45;;;7.75;;
64060;SDS011;60147;55.036;73.242;2023-05-07T02:48:40;17.50;;;7.63;;
64060;SDS011;60147;55.036;73.242;2023-05-07T02:51:06;21.85;;;8.52;;
64060;SDS011;60147;55.036;73.242;2023-05-07T02:56:37;33.17;;;9.20;;
64060;SDS011;60147;55.036;73.242;2023-05-07T03:02:24;21.83;;;7.80;;
64060;SDS011;60147;55.036;73.242;2023-05-07T03:04:52;22.00;;;7.88;;
64060;SDS011;60147;55.036;73.242;2023-05-07T03:07:18;22.73;;;7.68;;
64060;SDS011;60147;55.036;73.242;2023-05-07T03:09:43;21.48;;;8.98;;
64060;SDS011;60147;55.036;73.242;2023-05-07T03:12:09;22.15;;;8.20;;
64060;SDS011;60147;55.036;73.242;2023-05-07T03:14:35;18.30;;;7.70;;
64060;SDS011;60147;55.036;73.242;2023-05-07T03:17:01;21.35;;;7.32;;
64060;SDS011;60147;55.036;73.242;2023-05-07T03:19:27;14.55;;;6.97;;
64060;SDS011;60147;55.036;73.242;2023-05-07T03:21:53;16.33;;;6.55;;
64060;SDS011;60147;55.036;73.242;2023-05-07T03:24:19;21.75;;;7.00;;
64060;SDS011;60147;55.036;73.242;2023-05-07T03:26:45;17.77;;;6.85;;
64060;SDS011;60147;55.036;73.242;2023-05-07T03:31:56;37.15;;;7.53;;
64060;SDS011;60147;55.036;73.242;2023-05-07T03:34:40;21.25;;;6.60;;
64060;SDS011;60147;55.036;73.242;2023-05-07T03:37:06;20.23;;;7.00;;
64060;SDS011;60147;55.036;73.242;2023-05-07T03:39:51;19.95;;;6.80;;
64060;SDS011;60147;55.036;73.242;2023-05-07T03:42:18;24.17;;;6.80;;
64060;SDS011;60147;55.036;73.242;2023-05-07T03:44:47;18.92;;;7.20;;
64060;SDS011;60147;55.036;73.242;2023-05-07T03:47:13;24.20;;;6.57;;
64060;SDS011;60147;55.036;73.242;2023-05-07T03:53:01;15.95;;;6.30;;
64060;SDS011;60147;55.036;73.242;2023-05-07T03:55:29;22.15;;;7.10;;
64060;SDS011;60147;55.036;73.242;2023-05-07T03:57:59;16.83;;;6.30;;
64060;SDS011;60147;55.036;73.242;2023-05-07T04:00:27;20.20;;;6.22;;
64060;SDS011;60147;55.036;73.242;2023-05-07T04:02:57;12.93;;;4.90;;
64060;SDS011;60147;55.036;73.242;2023-05-07T04:05:42;18.27;;;5.60;;
64060;SDS011;60147;55.036;73.242;2023-05-07T04:08:08;15.45;;;5.18;;
64060;SDS011;60147;55.036;73.242;2023-05-07T04:10:40;14.60;;;4.65;;
64060;SDS011;60147;55.036;73.242;2023-05-07T04:15:55;13.18;;;3.97;;
64060;SDS011;60147;55.036;73.242;2023-05-07T04:18:39;12.82;;;3.90;;
64060;SDS011;60147;55.036;73.242;2023-05-07T04:21:13;10.20;;;3.00;;
64060;SDS011;60147;55.036;73.242;2023-05-07T04:23:39;13.35;;;3.88;;
64060;SDS011;60147;55.036;73.242;2023-05-07T04:26:09;14.27;;;3.08;;
64060;SDS011;60147;55.036;73.242;2023-05-07T04:28:39;15.17;;;3.13;;
64060;SDS011;60147;55.036;73.242;2023-05-07T04:31:06;10.43;;;2.97;;
64060;SDS011;60147;55.036;73.242;2023-05-07T04:33:34;9.32;;;2.53;;
64060;SDS011;60147;55.036;73.242;2023-05-07T04:36:03;7.50;;;3.50;;
64060;SDS011;60147;55.036;73.242;2023-05-07T04:38:33;11.55;;;2.88;;
64060;SDS011;60147;55.036;73.242;2023-05-07T04:44:01;7.53;;;3.08;;
64060;SDS011;60147;55.036;73.242;2023-05-07T04:46:31;10.88;;;2.90;;
64060;SDS011;60147;55.036;73.242;2023-05-07T04:48:57;10.27;;;2.78;;
64060;SDS011;60147;55.036;73.242;2023-05-07T04:51:23;10.38;;;2.65;;
64060;SDS011;60147;55.036;73.242;2023-05-07T04:53:49;14.43;;;3.15;;
64060;SDS011;60147;55.036;73.242;2023-05-07T04:56:16;10.38;;;2.75;;
64060;SDS011;60147;55.036;73.242;2023-05-07T04:58:44;6.50;;;2.00;;
64060;SDS011;60147;55.036;73.242;2023-05-07T05:01:11;8.00;;;2.75;;
64060;SDS011;60147;55.036;73.242;2023-05-07T05:03:38;10.52;;;2.55;;
64060;SDS011;60147;55.036;73.242;2023-05-07T05:06:05;9.02;;;2.80;;
64060;SDS011;60147;55.036;73.242;2023-05-07T05:08:33;9.02;;;2.38;;
64060;SDS011;60147;55.036;73.242;2023-05-07T05:11:01;3.90;;;2.05;;
64060;SDS011;60147;55.036;73.242;2023-05-07T05:13:28;8.68;;;2.47;;
64060;SDS011;60147;55.036;73.242;2023-05-07T05:15:54;9.48;;;2.45;;
64060;SDS011;60147;55.036;73.242;2023-05-07T05:18:20;7.75;;;2.00;;
64060;SDS011;60147;55.036;73.242;2023-05-07T05:23:32;9.38;;;2.65;;
64060;SDS011;60147;55.036;73.242;2023-05-07T05:25:59;6.53;;;2.22;;
64060;SDS011;60147;55.036;73.242;2023-05-07T05:28:27;9.63;;;2.60;;
64060;SDS011;60147;55.036;73.242;2023-05-07T05:30:53;26.08;;;9.60;;
64060;SDS011;60147;55.036;73.242;2023-05-07T05:33:21;15.32;;;8.45;;
64060;SDS011;60147;55.036;73.242;2023-05-07T05:35:46;13.02;;;7.60;;
64060;SDS011;60147;55.036;73.242;2023-05-07T05:38:13;10.10;;;4.72;;
64060;SDS011;60147;55.036;73.242;2023-05-07T05:40:40;33.42;;;22.02;;
64060;SDS011;60147;55.036;73.242;2023-05-07T05:43:06;14.05;;;2.95;;
64060;SDS011;60147;55.036;73.242;2023-05-07T05:45:32;8.05;;;2.58;;
64060;SDS011;60147;55.036;73.242;2023-05-07T05:47:58;6.35;;;4.25;;
64060;SDS011;60147;55.036;73.242;2023-05-07T05:50:24;6.63;;;3.47;;
64060;SDS011;60147;55.036;73.242;2023-05-07T05:56:39;6.72;;;2.10;;
64060;SDS011;60147;55.036;73.242;2023-05-07T06:01:52;14.60;;;4.72;;
64060;SDS011;60147;55.036;73.242;2023-05-07T06:04:18;11.80;;;4.15;;
64060;SDS011;60147;55.036;73.242;2023-05-07T06:06:44;21.45;;;7.72;;
64060;SDS011;60147;55.036;73.242;2023-05-07T06:09:11;12.07;;;3.42;;
64060;SDS011;60147;55.036;73.242;2023-05-07T06:11:41;6.72;;;2.13;;
64060;SDS011;60147;55.036;73.242;2023-05-07T06:14:08;30.60;;;10.07;;
64060;SDS011;60147;55.036;73.242;2023-05-07T06:16:34;9.93;;;2.33;;
64060;SDS011;60147;55.036;73.242;2023-05-07T06:19:02;9.57;;;2.60;;
64060;SDS011;60147;55.036;73.242;2023-05-07T06:21:27;23.48;;;7.53;;
64060;SDS011;60147;55.036;73.242;2023-05-07T06:26:57;8.82;;;1.98;;
64060;SDS011;60147;55.036;73.242;2023-05-07T06:29:25;17.80;;;2.88;;
64060;SDS011;60147;55.036;73.242;2023-05-07T06:31:54;9.50;;;2.90;;
64060;SDS011;60147;55.036;73.242;2023-05-07T06:36:48;8.13;;;2.60;;
64060;SDS011;60147;55.036;73.242;2023-05-07T06:42:09;9.93;;;2.65;;
64060;SDS011;60147;55.036;73.242;2023-05-07T06:47:43;11.50;;;2.08;;
64060;SDS011;60147;55.036;73.242;2023-05-07T06:50:09;7.57;;;1.90;;
64060;SDS011;60147;55.036;73.242;2023-05-07T06:52:35;8.45;;;2.38;;
64060;SDS011;60147;55.036;73.242;2023-05-07T06:55:01;5.13;;;1.75;;
64060;SDS011;60147;55.036;73.242;2023-05-07T06:57:27;8.35;;;1.98;;
64060;SDS011;60147;55.036;73.242;2023-05-07T06:59:53;9.30;;;2.08;;
64060;SDS011;60147;55.036;73.242;2023-05-07T07:02:20;5.22;;;1.77;;
64060;SDS011;60147;55.036;73.242;2023-05-07T07:04:56;6.00;;;1.58;;
64060;SDS011;60147;55.036;73.242;2023-05-07T07:07:22;4.03;;;1.67;;
64060;SDS011;60147;55.036;73.242;2023-05-07T07:10:07;10.65;;;2.10;;
64060;SDS011;60147;55.036;73.242;2023-05-07T07:12:34;9.77;;;2.15;;
64060;SDS011;60147;55.036;73.242;2023-05-07T07:15:19;6.90;;;2.10;;
64060;SDS011;60147;55.036;73.242;2023-05-07T07:20:32;20.35;;;4.13;;
64060;SDS011;60147;55.036;73.242;2023-05-07T07:22:58;47.50;;;20.30;;
64060;SDS011;60147;55.036;73.242;2023-05-07T07:25:25;10.88;;;2.95;;
64060;SDS011;60147;55.036;73.242;2023-05-07T07:27:52;10.25;;;2.40;;
64060;SDS011;60147;55.036;73.242;2023-05-07T07:30:19;10.32;;;2.30;;
64060;SDS011;60147;55.036;73.242;2023-05-07T07:33:03;4.25;;;1.95;;
64060;SDS011;60147;55.036;73.242;2023-05-07T07:35:34;9.60;;;3.28;;
64060;SDS011;60147;55.036;73.242;2023-05-07T07:38:01;11.73;;;2.10;;
64060;SDS011;60147;55.036;73.242;2023-05-07T07:40:47;6.25;;;2.35;;
64060;SDS011;60147;55.036;73.242;2023-05-07T07:43:14;14.95;;;2.42;;
64060;SDS011;60147;55.036;73.242;2023-05-07T07:45:41;7.80;;;2.20;;
64060;SDS011;60147;55.036;73.242;2023-05-07T07:48:07;20.52;;;2.47;;
64060;SDS011;60147;55.036;73.242;2023-05-07T07:50:36;11.57;;;2.65;;
64060;SDS011;60147;55.036;73.242;2023-05-07T07:53:04;7.55;;;2.30;;
64060;SDS011;60147;55.036;73.242;2023-05-07T07:55:30;7.25;;;2.03;;
64060;SDS011;60147;55.036;73.242;2023-05-07T07:57:58;8.35;;;2.20;;
64060;SDS011;60147;55.036;73.242;2023-05-07T08:00:24;5.72;;;1.65;;
64060;SDS011;60147;55.036;73.242;2023-05-07T08:05:44;6.10;;;1.80;;
64060;SDS011;60147;55.036;73.242;2023-05-07T08:08:29;7.47;;;2.42;;
64060;SDS011;60147;55.036;73.242;2023-05-07T08:13:40;8.68;;;2.10;;
64060;SDS011;60147;55.036;73.242;2023-05-07T08:16:06;7.03;;;2.33;;
64060;SDS011;60147;55.036;73.242;2023-05-07T08:21:21;8.27;;;2.75;;
64060;SDS011;60147;55.036;73.242;2023-05-07T08:23:47;8.57;;;2.22;;
64060;SDS011;60147;55.036;73.242;2023-05-07T08:26:14;6.22;;;1.92;;
64060;SDS011;60147;55.036;73.242;2023-05-07T08:28:40;10.02;;;2.10;;
64060;SDS011;60147;55.036;73.242;2023-05-07T08:31:07;12.70;;;2.17;;
64060;SDS011;60147;55.036;73.242;2023-05-07T08:33:35;10.85;;;2.45;;
64060;SDS011;60147;55.036;73.242;2023-05-07T08:36:20;17.70;;;5.15;;
64060;SDS011;60147;55.036;73.242;2023-05-07T08:41:31;8.52;;;2.15;;
64060;SDS011;60147;55.036;73.242;2023-05-07T08:43:57;6.32;;;2.47;;
64060;SDS011;60147;55.036;73.242;2023-05-07T08:46:24;9.38;;;2.00;;
64060;SDS011;60147;55.036;73.242;2023-05-07T08:48:54;5.88;;;2.22;;
64060;SDS011;60147;55.036;73.242;2023-05-07T08:51:20;6.43;;;1.77;;
64060;SDS011;60147;55.036;73.242;2023-05-07T08:53:47;11.77;;;3.78;;
64060;SDS011;60147;55.036;73.242;2023-05-07T08:56:19;16.55;;;2.88;;
64060;SDS011;60147;55.036;73.242;2023-05-07T09:01:31;16.60;;;4.35;;
64060;SDS011;60147;55.036;73.242;2023-05-07T09:03:57;14.25;;;4.60;;
64060;SDS011;60147;55.036;73.242;2023-05-07T09:06:26;9.15;;;1.80;;
64060;SDS011;60147;55.036;73.242;2023-05-07T09:08:53;10.23;;;2.58;;
64060;SDS011;60147;55.036;73.242;2023-05-07T09:11:24;5.68;;;2.92;;
64060;SDS011;60147;55.036;73.242;2023-05-07T09:14:10;9.02;;;2.97;;
64060;SDS011;60147;55.036;73.242;2023-05-07T09:19:24;8.82;;;2.00;;
64060;SDS011;60147;55.036;73.242;2023-05-07T09:21:59;3.80;;;1.75;;
64060;SDS011;60147;55.036;73.242;2023-05-07T09:24:54;6.57;;;2.28;;
64060;SDS011;60147;55.036;73.242;2023-05-07T09:27:24;15.05;;;7.10;;
64060;SDS011;60147;55.036;73.242;2023-05-07T09:32:54;6.05;;;2.35;;
64060;SDS011;60147;55.036;73.242;2023-05-07T09:35:21;9.65;;;2.20;;
64060;SDS011;60147;55.036;73.242;2023-05-07T09:37:55;7.32;;;2.63;;
64060;SDS011;60147;55.036;73.242;2023-05-07T09:40:22;7.90;;;1.80;;
64060;SDS011;60147;55.036;73.242;2023-05-07T09:42:49;6.85;;;2.08;;
64060;SDS011;60147;55.036;73.242;2023-05-07T09:48:23;6.45;;;1.75;;
64060;SDS011;60147;55.036;73.242;2023-05-07T09:50:55;7.35;;;1.80;;
64060;SDS011;60147;55.036;73.242;2023-05-07T09:53:26;13.40;;;2.10;;
64060;SDS011;60147;55.036;73.242;2023-05-07T09:55:53;18.88;;;2.67;;
64060;SDS011;60147;55.036;73.242;2023-05-07T09:58:20;7.53;;;2.22;;
64060;SDS011;60147;55.036;73.242;2023-05-07T10:00:49;11.00;;;1.80;;
64060;SDS011;60147;55.036;73.242;2023-05-07T10:03:16;13.32;;;2.40;;
64060;SDS011;60147;55.036;73.242;2023-05-07T10:08:45;8.20;;;2.00;;
64060;SDS011;60147;55.036;73.242;2023-05-07T10:11:12;5.05;;;1.98;;
64060;SDS011;60147;55.036;73.242;2023-05-07T10:14:16;17.50;;;2.50;;
64060;SDS011;60147;55.036;73.242;2023-05-07T10:16:43;12.18;;;2.67;;
64060;SDS011;60147;55.036;73.242;2023-05-07T10:19:14;11.82;;;2.70;;
64060;SDS011;60147;55.036;73.242;2023-05-07T10:21:51;16.40;;;2.92;;
64060;SDS011;60147;55.036;73.242;2023-05-07T10:24:21;11.52;;;2.17;;
64060;SDS011;60147;55.036;73.242;2023-05-07T10:26:48;5.85;;;2.38;;
64060;SDS011;60147;55.036;73.242;2023-05-07T10:29:18;8.48;;;2.00;;
64060;SDS011;60147;55.036;73.242;2023-05-07T10:34:37;10.65;;;2.90;;
64060;SDS011;60147;55.036;73.242;2023-05-07T10:37:23;10.13;;;2.50;;
64060;SDS011;60147;55.036;73.242;2023-05-07T10:39:49;8.45;;;2.40;;
64060;SDS011;60147;55.036;73.242;2023-05-07T10:42:16;13.82;;;2.50;;
64060;SDS011;60147;55.036;73.242;2023-05-07T10:44:48;8.90;;;2.70;;
64060;SDS011;60147;55.036;73.242;2023-05-07T10:47:21;7.68;;;2.35;;
64060;SDS011;60147;55.036;73.242;2023-05-07T10:52:25;9.82;;;2.63;;
64060;SDS011;60147;55.036;73.242;2023-05-07T10:57:49;16.52;;;3.50;;
64060;SDS011;60147;55.036;73.242;2023-05-07T11:03:20;9.65;;;2.35;;
64060;SDS011;60147;55.036;73.242;2023-05-07T11:06:13;3.88;;;2.25;;
64060;SDS011;60147;55.036;73.242;2023-05-07T11:08:58;7.30;;;2.10;;
64060;SDS011;60147;55.036;73.242;2023-05-07T11:17:09;9.68;;;2.75;;
64060;SDS011;60147;55.036;73.242;2023-05-07T11:19:54;11.77;;;2.50;;
64060;SDS011;60147;55.036;73.242;2023-05-07T11:22:42;11.20;;;3.80;;
64060;SDS011;60147;55.036;73.242;2023-05-07T11:25:33;12.55;;;3.20;;
64060;SDS011;60147;55.036;73.242;2023-05-07T11:31:17;16.02;;;3.05;;
64060;SDS011;60147;55.036;73.242;2023-05-07T11:39:30;14.02;;;3.30;;
64060;SDS011;60147;55.036;73.242;2023-05-07T11:42:01;9.45;;;2.78;;
64060;SDS011;60147;55.036;73.242;2023-05-07T11:44:43;16.05;;;6.15;;
64060;SDS011;60147;55.036;73.242;2023-05-07T11:47:09;32.88;;;20.75;;
64060;SDS011;60147;55.036;73.242;2023-05-07T11:49:35;24.27;;;7.03;;
64060;SDS011;60147;55.036;73.242;2023-05-07T11:52:01;16.92;;;4.55;;
64060;SDS011;60147;55.036;73.242;2023-05-07T11:54:34;28.35;;;12.52;;
64060;SDS011;60147;55.036;73.242;2023-05-07T11:57:00;15.00;;;3.83;;
64060;SDS011;60147;55.036;73.242;2023-05-07T11:59:26;13.57;;;3.22;;
64060;SDS011;60147;55.036;73.242;2023-05-07T12:01:55;13.82;;;3.95;;
64060;SDS011;60147;55.036;73.242;2023-05-07T12:04:41;17.55;;;4.00;;
64060;SDS011;60147;55.036;73.242;2023-05-07T12:07:13;10.35;;;4.32;;
64060;SDS011;60147;55.036;73.242;2023-05-07T12:09:44;16.20;;;4.18;;
64060;SDS011;60147;55.036;73.242;2023-05-07T12:12:10;17.52;;;3.50;;
64060;SDS011;60147;55.036;73.242;2023-05-07T12:14:40;20.08;;;3.92;;
64060;SDS011;60147;55.036;73.242;2023-05-07T12:17:06;19.02;;;5.50;;
64060;SDS011;60147;55.036;73.242;2023-05-07T12:19:33;15.82;;;4.25;;
64060;SDS011;60147;55.036;73.242;2023-05-07T12:21:59;17.85;;;4.43;;
64060;SDS011;60147;55.036;73.242;2023-05-07T12:24:25;17.38;;;6.47;;
64060;SDS011;60147;55.036;73.242;2023-05-07T12:26:51;32.30;;;5.88;;
64060;SDS011;60147;55.036;73.242;2023-05-07T12:29:35;19.23;;;4.55;;
64060;SDS011;60147;55.036;73.242;2023-05-07T12:32:05;16.23;;;4.43;;
64060;SDS011;60147;55.036;73.242;2023-05-07T12:34:31;13.85;;;4.07;;
64060;SDS011;60147;55.036;73.242;2023-05-07T12:36:57;11.82;;;4.05;;
64060;SDS011;60147;55.036;73.242;2023-05-07T12:42:07;69.57;;;44.50;;
64060;SDS011;60147;55.036;73.242;2023-05-07T12:44:34;44.78;;;27.75;;
64060;SDS011;60147;55.036;73.242;2023-05-07T12:50:06;24.85;;;17.52;;
64060;SDS011;60147;55.036;73.242;2023-05-07T12:52:51;31.02;;;23.38;;
64060;SDS011;60147;55.036;73.242;2023-05-07T12:55:41;16.17;;;11.65;;
64060;SDS011;60147;55.036;73.242;2023-05-07T12:58:08;26.10;;;17.35;;
64060;SDS011;60147;55.036;73.242;2023-05-07T13:00:37;23.25;;;13.75;;
64060;SDS011;60147;55.036;73.242;2023-05-07T13:03:03;22.00;;;8.27;;
64060;SDS011;60147;55.036;73.242;2023-05-07T13:05:47;23.35;;;11.70;;
64060;SDS011;60147;55.036;73.242;2023-05-07T13:08:22;16.23;;;7.18;;
64060;SDS011;60147;55.036;73.242;2023-05-07T13:11:07;44.33;;;30.15;;
64060;SDS011;60147;55.036;73.242;2023-05-07T13:13:34;105.05;;;87.28;;
64060;SDS011;60147;55.036;73.242;2023-05-07T13:16:00;34.15;;;25.98;;
64060;SDS011;60147;55.036;73.242;2023-05-07T13:18:39;116.05;;;93.45;;
64060;SDS011;60147;55.036;73.242;2023-05-07T13:21:06;39.58;;;28.83;;
64060;SDS011;60147;55.036;73.242;2023-05-07T13:23:50;22.00;;;6.10;;
64060;SDS011;60147;55.036;73.242;2023-05-07T13:26:17;21.15;;;9.63;;
64060;SDS011;60147;55.036;73.242;2023-05-07T13:28:43;20.73;;;10.38;;
64060;SDS011;60147;55.036;73.242;2023-05-07T13:31:09;24.83;;;10.80;;
64060;SDS011;60147;55.036;73.242;2023-05-07T13:33:35;20.50;;;7.07;;
64060;SDS011;60147;55.036;73.242;2023-05-07T13:36:01;17.75;;;5.85;;
64060;SDS011;60147;55.036;73.242;2023-05-07T13:38:29;19.13;;;6.53;;
64060;SDS011;60147;55.036;73.242;2023-05-07T13:40:55;17.05;;;5.22;;
64060;SDS011;60147;55.036;73.242;2023-05-07T13:43:21;20.45;;;6.30;;
64060;SDS011;60147;55.036;73.242;2023-05-07T13:45:47;28.50;;;7.68;;
64060;SDS011;60147;55.036;73.242;2023-05-07T13:48:31;17.50;;;6.97;;
64060;SDS011;60147;55.036;73.242;2023-05-07T13:50:57;22.80;;;6.35;;
64060;SDS011;60147;55.036;73.242;2023-05-07T13:53:23;52.72;;;33.80;;
64060;SDS011;60147;55.036;73.242;2023-05-07T13:55:49;29.40;;;8.63;;
64060;SDS011;60147;55.036;73.242;2023-05-07T13:58:15;29.15;;;7.45;;
64060;SDS011;60147;55.036;73.242;2023-05-07T14:00:41;45.70;;;15.93;;
64060;SDS011;60147;55.036;73.242;2023-05-07T14:05:51;39.22;;;7.15;;
64060;SDS011;60147;55.036;73.242;2023-05-07T14:08:17;22.27;;;8.43;;
64060;SDS011;60147;55.036;73.242;2023-05-07T14:16:15;33.63;;;9.80;;
64060;SDS011;60147;55.036;73.242;2023-05-07T14:18:41;33.00;;;11.50;;
64060;SDS011;60147;55.036;73.242;2023-05-07T14:21:07;24.63;;;9.40;;
64060;SDS011;60147;55.036;73.242;2023-05-07T14:23:35;29.42;;;9.50;;
64060;SDS011;60147;55.036;73.242;2023-05-07T14:26:01;25.83;;;8.60;;
64060;SDS011;60147;55.036;73.242;2023-05-07T14:28:27;22.70;;;7.97;;
64060;SDS011;60147;55.036;73.242;2023-05-07T14:31:12;33.47;;;9.18;;
64060;SDS011;60147;55.036;73.242;2023-05-07T14:33:56;31.42;;;9.80;;
64060;SDS011;60147;55.036;73.242;2023-05-07T14:36:41;29.15;;;10.95;;
64060;SDS011;60147;55.036;73.242;2023-05-07T14:39:17;37.22;;;13.48;;
64060;SDS011;60147;55.036;73.242;2023-05-07T14:41:43;25.75;;;12.38;;
64060;SDS011;60147;55.036;73.242;2023-05-07T14:44:09;40.50;;;13.82;;
64060;SDS011;60147;55.036;73.242;2023-05-07T14:46:35;41.95;;;13.95;;
64060;SDS011;60147;55.036;73.242;2023-05-07T14:49:19;41.08;;;15.40;;
64060;SDS011;60147;55.036;73.242;2023-05-07T14:52:04;61.05;;;15.15;;
64060;SDS011;60147;55.036;73.242;2023-05-07T14:54:33;69.80;;;15.15;;
64060;SDS011;60147;55.036;73.242;2023-05-07T14:59:44;49.28;;;13.43;;
64060;SDS011;60147;55.036;73.242;2023-05-07T15:04:54;45.78;;;12.85;;
64060;SDS011;60147;55.036;73.242;2023-05-07T15:07:20;91.65;;;16.20;;
64060;SDS011;60147;55.036;73.242;2023-05-07T15:09:46;94.60;;;17.20;;
64060;SDS011;60147;55.036;73.242;2023-05-07T15:12:12;86.30;;;15.85;;
64060;SDS011;60147;55.036;73.242;2023-05-07T15:14:57;66.60;;;16.67;;
64060;SDS011;60147;55.036;73.242;2023-05-07T15:20:26;44.90;;;14.55;;
64060;SDS011;60147;55.036;73.242;2023-05-07T15:23:10;39.85;;;13.60;;
64060;SDS011;60147;55.036;73.242;2023-05-07T15:28:23;42.78;;;14.45;;
64060;SDS011;60147;55.036;73.242;2023-05-07T15:30:53;41.22;;;14.18;;
64060;SDS011;60147;55.036;73.242;2023-05-07T15:33:19;37.00;;;12.65;;
64060;SDS011;60147;55.036;73.242;2023-05-07T15:35:45;31.52;;;11.75;;
64060;SDS011;60147;55.036;73.242;2023-05-07T15:38:16;33.10;;;10.45;;
64060;SDS011;60147;55.036;73.242;2023-05-07T15:40:42;31.42;;;9.35;;
64060;SDS011;60147;55.036;73.242;2023-05-07T15:43:08;27.00;;;10.15;;
64060;SDS011;60147;55.036;73.242;2023-05-07T15:45:39;36.88;;;15.95;;
64060;SDS011;60147;55.036;73.242;2023-05-07T15:48:23;140.55;;;91.57;;
64060;SDS011;60147;55.036;73.242;2023-05-07T15:50:49;115.72;;;82.07;;
64060;SDS011;60147;55.036;73.242;2023-05-07T15:53:15;71.80;;;40.13;;
64060;SDS011;60147;55.036;73.242;2023-05-07T15:55:41;84.00;;;52.83;;
64060;SDS011;60147;55.036;73.242;2023-05-07T15:58:08;205.15;;;138.38;;
64060;SDS011;60147;55.036;73.242;2023-05-07T16:00:34;277.17;;;203.98;;
64060;SDS011;60147;55.036;73.242;2023-05-07T16:03:01;1085.70;;;825.22;;
64060;SDS011;60147;55.036;73.242;2023-05-07T16:05:28;504.85;;;402.92;;
64060;SDS011;60147;55.036;73.242;2023-05-07T16:10:38;352.75;;;255.30;;
64060;SDS011;60147;55.036;73.242;2023-05-07T16:13:04;112.60;;;70.75;;
64060;SDS011;60147;55.036;73.242;2023-05-07T16:15:49;56.75;;;30.15;;
64060;SDS011;60147;55.036;73.242;2023-05-07T16:18:14;73.15;;;46.45;;
64060;SDS011;60147;55.036;73.242;2023-05-07T16:20:41;73.28;;;43.78;;
64060;SDS011;60147;55.036;73.242;2023-05-07T16:25:54;23.40;;;9.65;;
64060;SDS011;60147;55.036;73.242;2023-05-07T16:28:20;33.60;;;11.40;;
64060;SDS011;60147;55.036;73.242;2023-05-07T16:30:46;29.33;;;13.77;;
64060;SDS011;60147;55.036;73.242;2023-05-07T16:33:12;37.15;;;22.25;;
64060;SDS011;60147;55.036;73.242;2023-05-07T16:35:38;44.13;;;21.38;;
64060;SDS011;60147;55.036;73.242;2023-05-07T16:40:48;156.52;;;104.22;;
64060;SDS011;60147;55.036;73.242;2023-05-07T16:43:51;268.50;;;194.70;;
64060;SDS011;60147;55.036;73.242;2023-05-07T16:46:17;101.07;;;66.72;;
64060;SDS011;60147;55.036;73.242;2023-05-07T16:48:43;66.55;;;39.83;;
64060;SDS011;60147;55.036;73.242;2023-05-07T16:51:09;83.60;;;50.17;;
64060;SDS011;60147;55.036;73.242;2023-05-07T16:56:19;85.13;;;57.33;;
64060;SDS011;60147;55.036;73.242;2023-05-07T16:58:46;112.35;;;71.57;;
64060;SDS011;60147;55.036;73.242;2023-05-07T17:01:12;65.40;;;40.28;;
64060;SDS011;60147;55.036;73.242;2023-05-07T17:03:39;41.92;;;20.42;;
64060;SDS011;60147;55.036;73.242;2023-05-07T17:06:24;25.83;;;13.27;;